createdAt,value
2019-01-28T00:00:23.023Z,17.70
2019-01-28T00:02:57.772Z,17.97
2019-01-28T00:05:32.973Z,17.60
2019-01-28T00:08:07.768Z,18.10
2019-01-28T00:10:45.159Z,17.70
2019-01-28T00:13:19.833Z,18.13
2019-01-28T00:16:12.315Z,17.83
2019-01-28T00:18:50.719Z,19.27
2019-01-28T00:21:25.189Z,18.53
2019-01-28T00:24:02.590Z,18.63
2019-01-28T00:26:57.013Z,19.17
2019-01-28T00:29:31.405Z,19.00
2019-01-28T00:32:06.297Z,19.67
2019-01-28T00:34:40.797Z,19.83
2019-01-28T00:37:16.162Z,19.87
2019-01-28T00:39:52.025Z,19.37
2019-01-28T00:42:27.107Z,20.73
2019-01-28T00:45:01.667Z,19.30
2019-01-28T00:47:36.495Z,19.80
2019-01-28T00:50:12.463Z,19.40
2019-01-28T00:52:47.694Z,18.83
2019-01-28T00:55:22.693Z,20.13
2019-01-28T00:57:57.668Z,19.20
2019-01-28T01:00:32.216Z,18.40
2019-01-28T01:03:07.082Z,18.93
2019-01-28T01:05:41.707Z,23.33
2019-01-28T01:08:16.718Z,18.10
2019-01-28T01:10:51.440Z,17.07
2019-01-28T01:13:26.320Z,17.17
2019-01-28T01:16:00.796Z,17.53
2019-01-28T01:18:35.742Z,18.13
2019-01-28T01:21:10.149Z,17.40
2019-01-28T01:23:44.797Z,17.60
2019-01-28T01:26:19.488Z,18.00
2019-01-28T01:28:54.323Z,17.43
2019-01-28T01:31:29.335Z,17.20
2019-01-28T01:34:04.019Z,17.03
2019-01-28T01:36:39.178Z,17.47
2019-01-28T01:39:13.809Z,16.87
2019-01-28T01:41:48.848Z,17.23
2019-01-28T01:44:23.765Z,16.60
2019-01-28T01:46:58.990Z,16.80
2019-01-28T01:49:33.675Z,17.87
2019-01-28T01:52:08.383Z,16.73
2019-01-28T01:54:44.025Z,16.63
2019-01-28T01:57:18.766Z,16.47
2019-01-28T01:59:53.772Z,15.70
2019-01-28T02:02:47.387Z,21.67
2019-01-28T02:05:22.229Z,17.73
2019-01-28T02:07:56.768Z,17.47
2019-01-28T02:10:31.043Z,16.93
2019-01-28T02:13:06.228Z,16.83
2019-01-28T02:15:40.934Z,18.97
2019-01-28T02:18:15.788Z,16.87
2019-01-28T02:20:50.758Z,15.87
2019-01-28T02:23:25.620Z,16.23
2019-01-28T02:26:00.213Z,15.87
2019-01-28T02:28:35.219Z,17.53
2019-01-28T02:31:09.860Z,16.30
2019-01-28T02:33:44.439Z,17.27
2019-01-28T02:36:19.751Z,17.10
2019-01-28T02:38:54.489Z,19.63
2019-01-28T02:41:29.218Z,17.00
2019-01-28T02:44:03.981Z,17.40
2019-01-28T02:46:38.736Z,17.13
2019-01-28T02:49:13.571Z,17.40
2019-01-28T02:51:48.964Z,17.90
2019-01-28T02:54:23.683Z,15.90
2019-01-28T02:56:58.392Z,18.40
2019-01-28T02:59:32.988Z,18.00
2019-01-28T03:02:08.378Z,17.87
2019-01-28T03:04:43.286Z,17.17
2019-01-28T03:07:17.722Z,17.47
2019-01-28T03:09:52.299Z,16.90
2019-01-28T03:12:27.095Z,17.10
2019-01-28T03:15:01.949Z,17.10
2019-01-28T03:17:36.622Z,17.25
2019-01-28T03:20:13.066Z,18.30
2019-01-28T03:22:48.099Z,17.20
2019-01-28T03:25:23.010Z,15.87
2019-01-28T03:27:57.927Z,16.10
2019-01-28T03:30:32.636Z,15.70
2019-01-28T03:33:07.495Z,19.40
2019-01-28T03:35:42.199Z,17.50
2019-01-28T03:38:16.782Z,17.60
2019-01-28T03:40:51.544Z,17.83
2019-01-28T03:43:26.439Z,16.93
2019-01-28T03:46:00.763Z,15.53
2019-01-28T03:48:35.532Z,17.10
2019-01-28T03:51:10.696Z,17.93
2019-01-28T03:54:04.273Z,17.23
2019-01-28T03:56:39.073Z,16.33
2019-01-28T03:59:13.956Z,17.47
2019-01-28T04:01:48.784Z,16.53
2019-01-28T04:04:23.472Z,16.60
2019-01-28T04:06:58.494Z,17.70
2019-01-28T04:09:32.699Z,16.67
2019-01-28T04:12:07.158Z,17.40
2019-01-28T04:14:41.688Z,15.50
2019-01-28T04:17:16.453Z,16.70
2019-01-28T04:19:51.204Z,19.00
2019-01-28T04:22:26.308Z,17.93
2019-01-28T04:25:00.637Z,16.57
2019-01-28T04:27:35.246Z,17.30
2019-01-28T04:30:13.634Z,17.77
2019-01-28T04:32:48.632Z,17.23
2019-01-28T04:35:23.674Z,17.82
2019-01-28T04:37:58.185Z,18.02
2019-01-28T04:40:33.431Z,18.17
2019-01-28T04:43:08.285Z,17.90
2019-01-28T04:45:42.883Z,18.63
2019-01-28T04:48:17.157Z,19.40
2019-01-28T04:50:51.962Z,17.90
2019-01-28T04:53:26.458Z,19.15
2019-01-28T04:56:01.074Z,18.67
2019-01-28T04:58:35.982Z,18.02
2019-01-28T05:01:11.107Z,18.60
2019-01-28T05:03:45.798Z,18.02
2019-01-28T05:06:22.548Z,20.00
2019-01-28T05:08:57.585Z,17.10
2019-01-28T05:11:31.951Z,17.00
2019-01-28T05:14:06.886Z,17.00
2019-01-28T05:16:41.645Z,16.63
2019-01-28T05:19:16.529Z,17.37
2019-01-28T05:21:51.395Z,15.73
2019-01-28T05:24:26.602Z,16.37
2019-01-28T05:27:01.809Z,16.50
2019-01-28T05:29:36.437Z,16.30
2019-01-28T05:32:11.071Z,17.67
2019-01-28T05:34:46.051Z,17.17
2019-01-28T05:37:20.737Z,16.40
2019-01-28T05:39:55.989Z,15.93
2019-01-28T05:42:30.782Z,15.67
2019-01-28T05:45:04.818Z,16.42
2019-01-28T05:47:39.347Z,16.60
2019-01-28T05:50:33.462Z,16.73
2019-01-28T05:53:27.352Z,15.93
2019-01-28T05:56:02.256Z,15.78
2019-01-28T05:58:38.972Z,16.93
2019-01-28T06:01:14.152Z,15.98
2019-01-28T06:03:48.710Z,16.17
2019-01-28T06:06:23.582Z,16.13
2019-01-28T06:08:58.336Z,16.75
2019-01-28T06:11:33.072Z,17.53
2019-01-28T06:14:07.625Z,15.98
2019-01-28T06:16:42.629Z,16.62
2019-01-28T06:19:17.542Z,16.87
2019-01-28T06:21:52.280Z,17.98
2019-01-28T06:24:27.033Z,15.80
2019-01-28T06:27:01.341Z,17.15
2019-01-28T06:29:35.636Z,16.80
2019-01-28T06:32:11.278Z,16.25
2019-01-28T06:34:45.867Z,15.88
2019-01-28T06:37:20.656Z,17.17
2019-01-28T06:39:55.421Z,15.38
2019-01-28T06:42:30.015Z,16.07
2019-01-28T06:45:04.678Z,16.30
2019-01-28T06:47:46.411Z,17.45
2019-01-28T06:50:16.037Z,16.00
2019-01-28T06:52:50.776Z,16.10
2019-01-28T06:55:25.454Z,16.32
2019-01-28T06:58:00.986Z,15.95
2019-01-28T07:00:37.156Z,14.57
2019-01-28T07:03:13.374Z,16.48
2019-01-28T07:05:48.184Z,15.90
2019-01-28T07:08:22.429Z,17.23
2019-01-28T07:10:57.329Z,16.50
2019-01-28T07:13:32.136Z,16.87
2019-01-28T07:16:07.063Z,17.23
2019-01-28T07:18:41.390Z,17.02
2019-01-28T07:21:16.142Z,16.20
2019-01-28T07:23:50.682Z,16.23
2019-01-28T07:26:25.265Z,15.90
2019-01-28T07:28:59.937Z,15.70
2019-01-28T07:31:36.246Z,17.00
2019-01-28T07:34:11.100Z,17.02
2019-01-28T07:36:46.007Z,16.07
2019-01-28T07:39:40.052Z,16.00
2019-01-28T07:42:14.486Z,14.58
2019-01-28T07:44:49.092Z,15.72
2019-01-28T07:47:23.689Z,16.10
2019-01-28T07:49:58.790Z,17.77
2019-01-28T07:52:33.014Z,16.82
2019-01-28T07:55:08.085Z,16.25
2019-01-28T07:57:42.289Z,16.00
2019-01-28T08:00:22.602Z,15.40
2019-01-28T08:02:57.416Z,15.90
2019-01-28T08:05:32.029Z,15.72
2019-01-28T08:08:06.736Z,18.65
2019-01-28T08:10:41.199Z,15.25
2019-01-28T08:13:16.947Z,15.90
2019-01-28T08:15:51.585Z,15.30
2019-01-28T08:18:26.914Z,15.43
2019-01-28T08:21:01.673Z,15.83
2019-01-28T08:23:36.605Z,15.45
2019-01-28T08:26:10.895Z,16.45
2019-01-28T08:28:45.746Z,15.78
2019-01-28T08:31:20.537Z,15.30
2019-01-28T08:33:55.541Z,15.58
2019-01-28T08:36:30.027Z,15.98
2019-01-28T08:39:05.409Z,15.50
2019-01-28T08:41:40.161Z,15.63
2019-01-28T08:44:16.099Z,15.43
2019-01-28T08:46:50.719Z,15.48
2019-01-28T08:49:26.094Z,16.23
2019-01-28T08:52:01.102Z,16.42
2019-01-28T08:54:35.906Z,14.95
2019-01-28T08:57:10.139Z,15.63
2019-01-28T08:59:44.678Z,16.53
2019-01-28T09:02:19.547Z,16.10
2019-01-28T09:04:54.036Z,16.30
2019-01-28T09:07:36.194Z,15.93
2019-01-28T09:10:12.008Z,15.85
2019-01-28T09:12:47.225Z,16.50
2019-01-28T09:15:24.231Z,16.07
2019-01-28T09:17:59.352Z,16.37
2019-01-28T09:20:34.397Z,16.52
2019-01-28T09:23:09.136Z,15.78
2019-01-28T09:25:43.913Z,15.48
2019-01-28T09:28:18.788Z,16.17
2019-01-28T09:30:53.602Z,15.38
2019-01-28T09:33:28.546Z,15.88
2019-01-28T09:36:03.069Z,15.70
2019-01-28T09:38:37.834Z,16.73
2019-01-28T09:41:21.171Z,15.63
2019-01-28T09:44:15.094Z,15.35
2019-01-28T09:46:50.216Z,16.42
2019-01-28T09:49:25.323Z,17.37
2019-01-28T09:52:02.933Z,16.42
2019-01-28T09:54:37.773Z,16.32
2019-01-28T09:57:30.040Z,15.28
2019-01-28T10:00:05.220Z,16.07
2019-01-28T10:02:39.774Z,17.17
2019-01-28T10:05:20.549Z,16.57
2019-01-28T10:08:14.417Z,16.50
2019-01-28T10:10:49.183Z,15.40
2019-01-28T10:13:26.279Z,16.77
2019-01-28T10:16:01.902Z,15.85
2019-01-28T10:18:41.780Z,15.53
2019-01-28T10:21:13.224Z,16.23
2019-01-28T10:23:48.088Z,16.02
2019-01-28T10:26:23.080Z,16.23
2019-01-28T10:28:57.409Z,16.02
2019-01-28T10:31:32.176Z,15.78
2019-01-28T10:34:07.322Z,15.43
2019-01-28T10:36:42.121Z,16.05
2019-01-28T10:39:17.577Z,16.42
2019-01-28T10:41:52.119Z,16.62
2019-01-28T10:44:26.720Z,16.52
2019-01-28T10:47:01.536Z,16.02
2019-01-28T10:49:36.104Z,16.87
2019-01-28T10:52:10.698Z,16.42
2019-01-28T10:54:45.564Z,18.42
2019-01-28T10:57:20.140Z,15.90
2019-01-28T10:59:55.203Z,17.73
2019-01-28T11:02:29.589Z,16.73
2019-01-28T11:05:04.288Z,18.02
2019-01-28T11:07:39.067Z,16.67
2019-01-28T11:10:17.523Z,16.20
2019-01-28T11:12:54.935Z,15.50
2019-01-28T11:15:31.989Z,16.67
2019-01-28T11:18:09.813Z,15.63
2019-01-28T11:20:44.372Z,15.58
2019-01-28T11:23:19.608Z,15.25
2019-01-28T11:25:54.544Z,15.77
2019-01-28T11:28:48.695Z,15.63
2019-01-28T11:31:23.498Z,16.10
2019-01-28T11:33:58.670Z,15.63
2019-01-28T11:36:33.657Z,15.53
2019-01-28T11:39:09.385Z,15.83
2019-01-28T11:41:44.332Z,15.83
2019-01-28T11:44:19.133Z,16.77
2019-01-28T11:46:54.306Z,17.00
2019-01-28T11:49:28.994Z,16.77
2019-01-28T11:52:04.003Z,16.33
2019-01-28T11:54:39.216Z,16.37
2019-01-28T11:57:31.761Z,16.40
2019-01-28T12:00:06.323Z,16.47
2019-01-28T12:02:41.273Z,16.80
2019-01-28T12:05:16.369Z,16.67
2019-01-28T12:07:51.177Z,16.53
2019-01-28T12:10:26.427Z,17.00
2019-01-28T12:13:01.215Z,16.73
2019-01-28T12:15:35.924Z,17.37
2019-01-28T12:18:10.760Z,16.07
2019-01-28T12:20:52.992Z,17.13
2019-01-28T12:23:22.021Z,16.27
2019-01-28T12:25:57.103Z,16.63
2019-01-28T12:28:32.136Z,16.90
2019-01-28T12:31:06.930Z,18.07
2019-01-28T12:33:45.306Z,16.50
2019-01-28T12:36:37.939Z,15.70
2019-01-28T12:39:14.090Z,16.17
2019-01-28T12:41:48.351Z,15.97
2019-01-28T12:44:42.210Z,17.57
2019-01-28T12:47:17.017Z,16.10
2019-01-28T12:49:52.635Z,16.83
2019-01-28T12:52:29.452Z,17.23
2019-01-28T12:55:04.779Z,17.60
2019-01-28T12:57:57.289Z,16.97
2019-01-28T13:00:39.628Z,16.53
2019-01-28T13:03:15.875Z,17.50
2019-01-28T13:05:50.855Z,18.37
2019-01-28T13:08:27.716Z,22.67
2019-01-28T13:11:02.125Z,17.80
2019-01-28T13:13:40.987Z,18.33
2019-01-28T13:16:12.845Z,17.50
2019-01-28T13:18:48.610Z,18.67
2019-01-28T13:21:23.092Z,17.20
2019-01-28T13:23:57.805Z,17.87
2019-01-28T13:26:32.038Z,18.07
2019-01-28T13:29:06.919Z,17.53
2019-01-28T13:31:41.383Z,18.10
2019-01-28T13:34:16.325Z,17.77
2019-01-28T13:36:51.173Z,19.70
2019-01-28T13:39:26.256Z,18.63
2019-01-28T13:42:01.083Z,18.67
2019-01-28T13:44:35.987Z,19.10
2019-01-28T13:47:11.514Z,18.27
2019-01-28T13:49:45.977Z,18.90
2019-01-28T13:52:21.165Z,18.52
2019-01-28T13:54:55.796Z,19.67
2019-01-28T13:57:30.401Z,19.70
2019-01-28T14:00:05.874Z,20.80
2019-01-28T14:02:40.997Z,21.13
2019-01-28T14:05:15.908Z,20.40
2019-01-28T14:07:50.264Z,23.90
2019-01-28T14:10:24.751Z,21.00
2019-01-28T14:12:59.690Z,21.93
2019-01-28T14:15:36.686Z,21.43
2019-01-28T14:18:12.754Z,21.67
2019-01-28T14:20:47.389Z,22.13
2019-01-28T14:23:22.098Z,20.88
2019-01-28T14:25:56.634Z,21.77
2019-01-28T14:28:31.200Z,22.17
2019-01-28T14:31:06.075Z,23.00
2019-01-28T14:33:40.531Z,23.47
2019-01-28T14:36:15.620Z,23.13
2019-01-28T14:38:50.135Z,23.50
2019-01-28T14:41:24.790Z,24.50
2019-01-28T14:44:00.136Z,24.50
2019-01-28T14:46:34.547Z,22.83
2019-01-28T14:49:09.683Z,23.80
2019-01-28T14:51:44.472Z,23.98
2019-01-28T14:54:19.455Z,27.23
2019-01-28T14:56:54.245Z,24.00
2019-01-28T14:59:28.651Z,26.90
2019-01-28T15:02:25.466Z,25.97
2019-01-28T15:05:00.102Z,27.40
2019-01-28T15:07:34.883Z,28.45
2019-01-28T15:10:10.030Z,27.35
2019-01-28T15:12:45.372Z,26.25
2019-01-28T15:15:21.886Z,26.60
2019-01-28T15:17:57.005Z,27.17
2019-01-28T15:20:31.811Z,26.53
2019-01-28T15:23:06.903Z,27.67
2019-01-28T15:25:41.441Z,28.13
2019-01-28T15:28:16.099Z,26.83
2019-01-28T15:30:51.473Z,25.73
2019-01-28T15:33:25.872Z,27.53
2019-01-28T15:36:00.285Z,27.87
2019-01-28T15:38:35.614Z,26.77
2019-01-28T15:41:10.379Z,25.97
2019-01-28T15:43:45.100Z,26.50
2019-01-28T15:46:20.270Z,27.07
2019-01-28T15:49:14.143Z,26.20
2019-01-28T15:51:48.900Z,25.00
2019-01-28T15:54:24.074Z,26.97
2019-01-28T15:56:58.763Z,26.17
2019-01-28T15:59:34.960Z,26.67
2019-01-28T16:02:09.529Z,26.17
2019-01-28T16:05:02.040Z,25.93
2019-01-28T16:07:37.093Z,25.25
2019-01-28T16:10:14.287Z,26.33
2019-01-28T16:12:48.849Z,26.50
2019-01-28T16:15:28.919Z,27.27
2019-01-28T16:18:22.647Z,26.42
2019-01-28T16:20:57.403Z,26.50
2019-01-28T16:23:33.166Z,26.77
2019-01-28T16:26:07.904Z,26.00
2019-01-28T16:28:42.409Z,26.83
2019-01-28T16:31:17.149Z,26.73
2019-01-28T16:33:51.899Z,27.03
2019-01-28T16:36:26.575Z,27.03
2019-01-28T16:39:00.964Z,27.67
2019-01-28T16:41:36.246Z,26.70
2019-01-28T16:44:10.981Z,27.27
2019-01-28T16:46:47.329Z,26.83
2019-01-28T16:49:22.097Z,28.40
2019-01-28T16:51:57.105Z,27.87
2019-01-28T16:54:31.765Z,26.97
2019-01-28T16:57:06.492Z,27.47
2019-01-28T17:00:00.056Z,27.87
2019-01-28T17:02:34.198Z,27.73
2019-01-28T17:05:09.693Z,28.10
2019-01-28T17:07:44.486Z,28.27
2019-01-28T17:10:21.518Z,30.00
2019-01-28T17:12:56.211Z,29.17
2019-01-28T17:15:31.833Z,29.83
2019-01-28T17:18:06.620Z,28.60
2019-01-28T17:20:41.364Z,29.10
2019-01-28T17:26:07.344Z,27.67
2019-01-28T17:28:44.490Z,28.43
2019-01-28T17:31:19.525Z,28.60
2019-01-28T17:33:54.155Z,31.03
2019-01-28T17:36:46.708Z,31.93
2019-01-28T17:39:22.308Z,33.40
2019-01-28T17:42:15.229Z,32.13
2019-01-28T17:44:49.992Z,32.40
2019-01-28T17:47:25.160Z,35.20
2019-01-28T17:50:01.316Z,34.00
2019-01-28T17:52:36.971Z,34.27
2019-01-28T17:55:12.085Z,33.47
2019-01-28T17:57:46.617Z,34.17
2019-01-28T18:00:30.906Z,34.38
2019-01-28T18:03:05.590Z,33.30
2019-01-28T18:05:40.312Z,33.53
2019-01-28T18:08:34.347Z,33.28
2019-01-28T18:11:08.906Z,33.17
2019-01-28T18:13:43.926Z,32.53
2019-01-28T18:16:18.444Z,31.20
2019-01-28T18:18:53.090Z,30.62
2019-01-28T18:21:27.379Z,30.50
2019-01-28T18:24:01.990Z,31.37
2019-01-28T18:26:36.557Z,31.10
2019-01-28T18:29:11.580Z,31.17
2019-01-28T18:31:46.519Z,29.07
2019-01-28T18:34:21.434Z,29.97
2019-01-28T18:36:55.965Z,30.03
2019-01-28T18:39:30.551Z,28.70
2019-01-28T18:42:05.561Z,28.93
2019-01-28T18:44:40.065Z,30.13
2019-01-28T18:47:15.465Z,28.47
2019-01-28T18:49:50.360Z,27.83
2019-01-28T18:52:44.413Z,28.13
2019-01-28T18:55:19.046Z,27.67
2019-01-28T18:57:53.945Z,28.97
2019-01-28T19:00:31.766Z,29.42
2019-01-28T19:03:06.501Z,29.40
2019-01-28T19:05:59.389Z,27.23
2019-01-28T19:08:55.248Z,26.90
2019-01-28T19:12:06.964Z,26.80
2019-01-28T19:14:59.822Z,27.50
2019-01-28T19:17:51.547Z,26.83
2019-01-28T19:20:31.537Z,28.97
2019-01-28T19:23:06.121Z,27.03
2019-01-28T19:25:40.635Z,27.97
2019-01-28T19:28:15.399Z,27.73
2019-01-28T19:30:50.225Z,27.70
2019-01-28T19:33:25.212Z,27.70
2019-01-28T19:35:59.816Z,27.57
2019-01-28T19:38:34.658Z,27.10
2019-01-28T19:41:09.403Z,27.43
2019-01-28T19:43:44.471Z,27.37
2019-01-28T19:46:19.087Z,26.73
2019-01-28T19:48:53.473Z,26.13
2019-01-28T19:51:28.658Z,26.00
2019-01-28T19:54:03.450Z,26.83
2019-01-28T19:56:40.340Z,25.73
2019-01-28T19:59:14.881Z,26.23
2019-01-28T20:01:50.137Z,26.77
2019-01-28T20:04:25.052Z,25.67
2019-01-28T20:07:00.195Z,25.77
2019-01-28T20:09:34.939Z,26.07
2019-01-28T20:12:09.915Z,25.40
2019-01-28T20:14:44.759Z,25.13
2019-01-28T20:17:19.906Z,25.53
2019-01-28T20:19:54.547Z,25.30
2019-01-28T20:22:36.217Z,25.03
2019-01-28T20:25:11.886Z,24.90
2019-01-28T20:27:47.143Z,24.80
2019-01-28T20:30:23.958Z,24.97
2019-01-28T20:32:59.002Z,24.30
2019-01-28T20:35:33.429Z,24.17
2019-01-28T20:38:15.359Z,24.47
2019-01-28T20:40:44.300Z,24.17
2019-01-28T20:43:23.845Z,24.17
2019-01-28T20:45:55.515Z,23.40
2019-01-28T20:48:30.102Z,23.43
2019-01-28T20:51:31.873Z,23.27
2019-01-28T20:54:00.510Z,23.30
2019-01-28T20:56:35.475Z,23.13
2019-01-28T20:59:10.698Z,23.50
2019-01-28T21:01:45.229Z,23.77
2019-01-28T21:04:20.139Z,24.43
2019-01-28T21:06:55.131Z,23.90
2019-01-28T21:09:30.220Z,22.63
2019-01-28T21:12:06.082Z,22.93
2019-01-28T21:14:40.510Z,23.17
2019-01-28T21:17:15.398Z,21.97
2019-01-28T21:19:50.276Z,22.03
2019-01-28T21:22:25.056Z,22.13
2019-01-28T21:24:59.841Z,22.40
2019-01-28T21:27:34.666Z,21.83
2019-01-28T21:30:10.763Z,22.17
2019-01-28T21:32:45.347Z,22.13
2019-01-28T21:35:21.676Z,23.40
2019-01-28T21:38:01.464Z,22.37
2019-01-28T21:40:36.457Z,22.00
2019-01-28T21:43:30.411Z,22.27
2019-01-28T21:46:05.290Z,22.23
2019-01-28T21:48:40.202Z,21.40
2019-01-28T21:51:15.042Z,21.17
2019-01-28T21:53:49.926Z,21.40
2019-01-28T21:56:25.255Z,21.67
2019-01-28T21:58:59.964Z,21.93
2019-01-28T22:01:35.402Z,21.87
2019-01-28T22:04:09.860Z,20.33
2019-01-28T22:06:44.530Z,20.33
2019-01-28T22:09:19.661Z,19.60
2019-01-28T22:11:54.180Z,19.57
2019-01-28T22:14:28.790Z,21.97
2019-01-28T22:17:04.483Z,21.30
2019-01-28T22:19:39.215Z,21.47
2019-01-28T22:22:14.427Z,19.97
2019-01-28T22:24:49.095Z,19.93
2019-01-28T22:27:23.907Z,20.37
2019-01-28T22:29:58.782Z,19.90
2019-01-28T22:32:34.283Z,19.63
2019-01-28T22:35:10.130Z,19.67
2019-01-28T22:37:45.006Z,20.63
2019-01-28T22:40:20.309Z,20.27
2019-01-28T22:42:55.097Z,19.87
2019-01-28T22:45:29.883Z,20.13
2019-01-28T22:48:04.758Z,20.57
2019-01-28T22:50:39.741Z,20.40
2019-01-28T22:53:14.543Z,20.43
2019-01-28T22:55:49.294Z,19.90
2019-01-28T22:58:24.640Z,20.87
2019-01-28T23:01:20.193Z,20.63
2019-01-28T23:03:55.104Z,21.20
2019-01-28T23:06:30.221Z,20.80
2019-01-28T23:09:06.875Z,19.90
2019-01-28T23:11:41.979Z,19.33
2019-01-28T23:14:16.935Z,20.60
2019-01-28T23:16:51.124Z,20.30
2019-01-28T23:19:26.089Z,19.93
2019-01-28T23:22:20.233Z,20.03
2019-01-28T23:24:54.899Z,20.27
2019-01-28T23:27:30.148Z,21.33
2019-01-28T23:30:04.945Z,19.90
2019-01-28T23:32:39.806Z,21.87
2019-01-28T23:35:14.060Z,21.20
2019-01-28T23:37:48.795Z,21.03
2019-01-28T23:40:23.336Z,20.53
2019-01-28T23:42:59.788Z,19.90
2019-01-28T23:45:34.566Z,21.20
2019-01-28T23:48:10.606Z,21.80
2019-01-28T23:50:45.219Z,19.57
2019-01-28T23:53:19.983Z,21.93
2019-01-28T23:55:54.908Z,20.90
2019-01-28T23:58:30.009Z,21.67
